| Date | Time | Temp. (oF) | Dew Point (oF) | Rel. Hum. (%) | Press. (in.) | Wind Dir. | Wind Speed (mph) | Hourly Rainfall (in.) |
|
|---|---|---|---|---|---|---|---|---|---|
| 1 | 08/24 | 00:00 | 70 | 64 | 83 | 30.14 | S | 0 | 0.00 |
| 2 | 08/23 | 23:00 | 71 | 64 | 79 | 30.14 | S | 0 | 0.00 |
| 3 | 08/23 | 22:00 | 72 | 63 | 76 | 30.15 | S | 0 | 0.00 |
| 4 | 08/23 | 21:00 | 74 | 64 | 72 | 30.15 | SE | 0 | 0.00 |
| 5 | 08/23 | 20:00 | 77 | 62 | 61 | 30.13 | S | 0 | 0.00 |
| 6 | 08/23 | 19:00 | 80 | 61 | 53 | 30.13 | SSE | 0 | 0.00 |
| 7 | 08/23 | 18:00 | 83 | 60 | 47 | 30.14 | SSW | 0 | 0.00 |
| 8 | 08/23 | 17:00 | 83 | 59 | 46 | 30.15 | SSW | 0 | 0.00 |
| 9 | 08/23 | 16:00 | 82 | 59 | 47 | 30.17 | SW | 1 | 0.00 |
| 10 | 08/23 | 15:00 | 83 | 60 | 47 | 30.20 | SSE | 0 | 0.00 |
| 11 | 08/23 | 14:00 | 81 | 58 | 46 | 30.22 | SW | 0 | 0.00 |
| 12 | 08/23 | 13:00 | 78 | 58 | 52 | 30.25 | WNW | 0 | 0.00 |
| 13 | 08/23 | 12:00 | 78 | 60 | 56 | 30.27 | SW | 0 | 0.00 |
| 14 | 08/23 | 11:00 | 76 | 63 | 65 | 30.29 | SW | 0 | 0.00 |
| 15 | 08/23 | 10:00 | 73 | 64 | 74 | 30.30 | S | 4 | 0.00 |
| 16 | 08/23 | 09:00 | 69 | 64 | 85 | 30.32 | ESE | 4 | 0.00 |
| 17 | 08/23 | 08:00 | 63 | 62 | 98 | 30.33 | ESE | 0 | 0.00 |
| 18 | 08/23 | 07:00 | 59 | 59 | 100 | 30.31 | NE | 0 | 0.00 |
| 19 | 08/23 | 06:00 | 59 | 58 | 97 | 30.30 | NE | 0 | 0.00 |
| 20 | 08/23 | 05:00 | 60 | 58 | 96 | 30.30 | NE | 0 | 0.00 |
| 21 | 08/23 | 04:00 | 62 | 60 | 95 | 30.29 | NE | 0 | 0.00 |
| 22 | 08/23 | 03:00 | 62 | 59 | 91 | 30.30 | E | 0 | 0.00 |
| 23 | 08/23 | 02:00 | 63 | 59 | 88 | 30.30 | E | 0 | 0.00 |
| 24 | 08/23 | 01:00 | 65 | 59 | 82 | 30.30 | ESE | 0 | 0.00 |